createdAt,value
2019-02-19T00:01:49.337Z,13.93
2019-02-19T00:04:17.639Z,14.53
2019-02-19T00:06:47.257Z,14.85
2019-02-19T00:09:15.539Z,13.95
2019-02-19T00:11:43.788Z,13.72
2019-02-19T00:14:12.073Z,15.13
2019-02-19T00:16:40.342Z,15.38
2019-02-19T00:19:09.241Z,14.07
2019-02-19T00:21:37.542Z,14.23
2019-02-19T00:24:05.799Z,15.08
2019-02-19T00:26:34.100Z,15.48
2019-02-19T00:29:02.367Z,12.93
2019-02-19T00:31:30.640Z,13.40
2019-02-19T00:33:58.901Z,13.70
2019-02-19T00:36:27.183Z,13.32
2019-02-19T00:38:55.448Z,14.47
2019-02-19T00:41:23.788Z,14.53
2019-02-19T00:43:52.044Z,13.75
2019-02-19T00:46:20.339Z,13.62
2019-02-19T00:48:48.732Z,14.47
2019-02-19T00:51:17.024Z,13.22
2019-02-19T00:53:45.289Z,13.60
2019-02-19T00:56:13.624Z,12.70
2019-02-19T00:58:41.875Z,13.13
2019-02-19T01:01:10.172Z,11.48
2019-02-19T01:03:38.446Z,14.28
2019-02-19T01:06:09.158Z,14.38
2019-02-19T01:08:37.418Z,15.85
2019-02-19T01:11:05.763Z,13.35
2019-02-19T01:13:34.043Z,15.45
2019-02-19T01:16:02.313Z,15.45
2019-02-19T01:18:30.608Z,15.55
2019-02-19T01:20:58.878Z,14.30
2019-02-19T01:23:27.165Z,13.98
2019-02-19T01:25:55.416Z,14.63
2019-02-19T01:28:23.714Z,15.10
2019-02-19T01:30:53.878Z,13.55
2019-02-19T01:33:22.130Z,15.80
2019-02-19T01:35:50.394Z,19.15
2019-02-19T01:38:18.708Z,16.20
2019-02-19T01:40:46.981Z,14.70
2019-02-19T01:43:16.900Z,16.10
2019-02-19T01:45:45.162Z,16.95
2019-02-19T01:48:13.448Z,18.60
2019-02-19T01:50:43.387Z,14.38
2019-02-19T01:53:11.647Z,15.13
2019-02-19T01:55:39.924Z,17.02
2019-02-19T01:58:08.186Z,14.90
2019-02-19T02:00:36.484Z,15.00
2019-02-19T02:03:04.793Z,15.70
2019-02-19T02:05:33.079Z,15.28
2019-02-19T02:08:01.341Z,15.10
2019-02-19T02:10:29.642Z,14.05
2019-02-19T02:12:57.920Z,16.82
2019-02-19T02:15:26.217Z,16.40
2019-02-19T02:17:54.503Z,17.23
2019-02-19T02:20:22.834Z,17.30
2019-02-19T02:22:51.095Z,16.82
2019-02-19T02:25:19.443Z,15.13
2019-02-19T02:27:47.719Z,18.50
2019-02-19T02:30:16.163Z,18.00
2019-02-19T02:32:44.448Z,18.10
2019-02-19T02:35:12.797Z,21.07
2019-02-19T02:37:41.037Z,19.40
2019-02-19T02:40:09.361Z,18.05
2019-02-19T02:42:37.641Z,17.90
2019-02-19T02:45:05.965Z,17.65
2019-02-19T02:48:11.006Z,19.55
2019-02-19T02:50:39.271Z,17.27
2019-02-19T02:53:07.564Z,19.45
2019-02-19T02:55:35.831Z,19.77
2019-02-19T02:58:04.108Z,21.17
2019-02-19T03:00:32.385Z,20.57
2019-02-19T03:03:00.683Z,22.10
2019-02-19T03:05:28.939Z,19.10
2019-02-19T03:07:58.863Z,20.52
2019-02-19T03:10:27.123Z,21.10
2019-02-19T03:12:55.610Z,20.77
2019-02-19T03:15:23.870Z,21.80
2019-02-19T03:17:52.160Z,19.80
2019-02-19T03:20:20.462Z,21.62
2019-02-19T03:22:48.741Z,22.02
2019-02-19T03:25:17.031Z,22.17
2019-02-19T03:27:45.305Z,22.35
2019-02-19T03:30:13.680Z,21.87
2019-02-19T03:32:41.957Z,22.65
2019-02-19T03:35:10.232Z,23.98
2019-02-19T03:37:38.512Z,22.85
2019-02-19T03:40:07.923Z,22.70
2019-02-19T03:42:36.219Z,23.52
2019-02-19T03:45:06.361Z,22.67
2019-02-19T03:47:34.697Z,24.02
2019-02-19T03:50:03.183Z,24.00
2019-02-19T03:52:31.484Z,21.50
2019-02-19T03:54:59.784Z,23.77
2019-02-19T03:57:28.057Z,23.70
2019-02-19T03:59:56.344Z,24.87
2019-02-19T04:02:24.612Z,24.98
2019-02-19T04:04:52.888Z,22.50
2019-02-19T04:07:21.165Z,23.80
2019-02-19T04:09:49.442Z,25.50
2019-02-19T04:12:19.329Z,22.90
2019-02-19T04:14:47.607Z,25.57
2019-02-19T04:17:15.889Z,23.85
2019-02-19T04:19:44.151Z,24.98
2019-02-19T04:22:12.434Z,23.95
2019-02-19T04:24:40.844Z,25.02
2019-02-19T04:27:09.114Z,26.93
2019-02-19T04:29:37.358Z,24.85
2019-02-19T04:32:05.634Z,26.52
2019-02-19T04:34:33.884Z,24.47
2019-02-19T04:37:02.154Z,26.10
2019-02-19T04:39:30.408Z,27.55
2019-02-19T04:41:58.699Z,29.63
2019-02-19T04:44:26.966Z,27.85
2019-02-19T04:46:55.246Z,31.90
2019-02-19T04:49:28.047Z,29.20
2019-02-19T04:51:56.327Z,30.17
2019-02-19T04:54:24.597Z,31.65
2019-02-19T04:56:52.858Z,30.15
2019-02-19T04:59:21.135Z,34.08
2019-02-19T05:01:49.415Z,36.42
2019-02-19T05:04:17.671Z,31.07
2019-02-19T05:06:45.946Z,31.70
2019-02-19T05:09:14.224Z,32.28
2019-02-19T05:11:42.486Z,32.53
2019-02-19T05:14:10.835Z,33.83
2019-02-19T05:16:41.003Z,33.75
2019-02-19T05:19:09.177Z,32.73
2019-02-19T05:21:37.435Z,34.70
2019-02-19T05:24:05.721Z,33.33
2019-02-19T05:26:33.967Z,34.13
2019-02-19T05:29:02.237Z,35.52
2019-02-19T05:31:30.508Z,36.03
2019-02-19T05:33:58.796Z,32.75
2019-02-19T05:36:27.059Z,33.25
2019-02-19T05:38:55.316Z,33.92
2019-02-19T05:41:23.621Z,36.45
2019-02-19T05:43:51.915Z,36.85
2019-02-19T05:46:23.170Z,37.23
2019-02-19T05:48:51.425Z,37.05
2019-02-19T05:51:19.681Z,34.75
2019-02-19T05:53:47.955Z,35.13
2019-02-19T05:56:16.227Z,36.63
2019-02-19T05:58:44.495Z,32.23
2019-02-19T06:01:12.735Z,37.58
2019-02-19T06:03:41.011Z,39.20
2019-02-19T06:06:10.907Z,40.17
2019-02-19T06:08:39.205Z,40.52
2019-02-19T06:11:07.464Z,37.23
2019-02-19T06:13:35.743Z,37.78
2019-02-19T06:16:04.005Z,36.65
2019-02-19T06:18:32.290Z,40.43
2019-02-19T06:21:00.537Z,41.18
2019-02-19T06:23:28.831Z,36.90
2019-02-19T06:25:57.082Z,37.28
2019-02-19T06:28:25.335Z,37.30
2019-02-19T06:30:53.604Z,36.85
2019-02-19T06:33:21.866Z,42.08
2019-02-19T06:35:50.158Z,35.95
2019-02-19T06:38:18.429Z,34.80
2019-02-19T06:40:46.705Z,35.78
2019-02-19T06:43:14.958Z,35.63
2019-02-19T06:45:45.586Z,34.53
2019-02-19T06:48:13.850Z,36.30
2019-02-19T06:50:42.125Z,33.20
2019-02-19T06:53:10.391Z,36.40
2019-02-19T06:55:38.646Z,35.60
2019-02-19T06:58:06.909Z,36.35
2019-02-19T07:00:35.193Z,37.17
2019-02-19T07:03:07.765Z,35.23
2019-02-19T07:05:36.055Z,34.40
2019-02-19T07:08:05.932Z,36.10
2019-02-19T07:10:34.200Z,37.85
2019-02-19T07:13:02.450Z,34.60
2019-02-19T07:15:30.710Z,36.45
2019-02-19T07:17:58.991Z,34.38
2019-02-19T07:20:27.239Z,31.65
2019-02-19T07:22:55.506Z,32.78
2019-02-19T07:25:23.847Z,34.92
2019-02-19T07:27:52.148Z,32.48
2019-02-19T07:30:20.463Z,34.25
2019-02-19T07:32:48.733Z,31.65
2019-02-19T07:35:17.032Z,31.37
2019-02-19T07:37:45.974Z,34.58
2019-02-19T07:40:14.310Z,37.73
2019-02-19T07:42:42.591Z,32.98
2019-02-19T07:45:12.538Z,33.23
2019-02-19T07:47:40.808Z,31.45
2019-02-19T07:50:10.687Z,31.62
2019-02-19T07:52:38.967Z,33.25
2019-02-19T07:55:09.630Z,33.45
2019-02-19T07:57:37.912Z,31.05
2019-02-19T08:00:11.555Z,30.77
2019-02-19T08:02:39.802Z,30.60
2019-02-19T08:05:08.691Z,31.70
2019-02-19T08:07:36.951Z,30.55
2019-02-19T08:10:08.174Z,29.60
2019-02-19T08:12:36.439Z,27.93
2019-02-19T08:15:09.306Z,27.58
2019-02-19T08:17:37.817Z,26.95
2019-02-19T08:20:15.481Z,29.48
2019-02-19T08:22:38.605Z,26.50
2019-02-19T08:25:08.578Z,26.48
2019-02-19T08:27:36.826Z,25.40
2019-02-19T08:30:07.396Z,25.77
2019-02-19T08:32:35.678Z,25.35
2019-02-19T08:35:04.246Z,26.30
2019-02-19T08:37:32.607Z,26.87
2019-02-19T08:40:00.829Z,26.23
2019-02-19T08:42:29.075Z,25.35
2019-02-19T08:44:57.455Z,25.25
2019-02-19T08:47:25.721Z,24.30
2019-02-19T08:49:54.008Z,25.62
2019-02-19T08:52:22.267Z,25.15
2019-02-19T08:54:50.623Z,23.40
2019-02-19T08:57:18.925Z,22.85
2019-02-19T08:59:47.187Z,23.45
2019-02-19T09:02:15.445Z,21.95
2019-02-19T09:04:43.715Z,23.87
2019-02-19T09:07:12.390Z,23.30
2019-02-19T09:09:40.957Z,22.32
2019-02-19T09:12:09.240Z,23.32
2019-02-19T09:14:37.511Z,23.85
2019-02-19T09:17:05.859Z,21.35
2019-02-19T09:19:34.133Z,23.15
2019-02-19T09:22:02.401Z,22.22
2019-02-19T09:24:33.539Z,21.35
2019-02-19T09:27:02.178Z,20.97
2019-02-19T09:29:30.452Z,20.25
2019-02-19T09:31:58.784Z,21.00
2019-02-19T09:34:27.051Z,19.75
2019-02-19T09:36:55.442Z,18.65
2019-02-19T09:39:23.732Z,19.12
2019-02-19T09:41:52.019Z,20.30
2019-02-19T09:44:23.353Z,18.87
2019-02-19T09:46:51.638Z,18.67
2019-02-19T09:49:19.889Z,21.37
2019-02-19T09:51:48.161Z,20.10
2019-02-19T09:54:16.445Z,19.37
2019-02-19T09:56:44.702Z,20.43
2019-02-19T09:59:14.626Z,22.02
2019-02-19T10:01:42.902Z,19.23
2019-02-19T10:04:11.183Z,20.75
2019-02-19T10:06:39.450Z,20.17
2019-02-19T10:09:09.571Z,18.73
2019-02-19T10:11:37.848Z,18.57
2019-02-19T10:14:06.112Z,19.45
2019-02-19T10:16:41.451Z,17.62
2019-02-19T10:19:04.423Z,17.37
2019-02-19T10:21:32.676Z,18.45
2019-02-19T10:24:00.972Z,17.55
2019-02-19T10:26:29.246Z,16.93
2019-02-19T10:28:57.535Z,17.75
2019-02-19T10:31:26.615Z,17.35
2019-02-19T10:33:54.897Z,15.68
2019-02-19T10:36:23.144Z,17.45
2019-02-19T10:38:51.416Z,16.75
2019-02-19T10:41:19.670Z,16.85
2019-02-19T10:43:47.956Z,15.68
2019-02-19T10:46:16.203Z,16.73
2019-02-19T10:48:44.513Z,15.88
2019-02-19T10:51:12.755Z,16.45
2019-02-19T10:53:41.046Z,17.15
2019-02-19T10:56:09.339Z,16.70
2019-02-19T10:58:37.614Z,17.92
2019-02-19T11:01:05.869Z,17.30
2019-02-19T11:03:34.149Z,16.95
2019-02-19T11:06:02.416Z,17.02
2019-02-19T11:08:30.669Z,18.15
2019-02-19T11:10:58.939Z,19.12
2019-02-19T11:13:27.192Z,19.10
2019-02-19T11:15:55.508Z,18.80
2019-02-19T11:18:28.358Z,19.48
2019-02-19T11:20:53.765Z,19.55
2019-02-19T11:23:22.025Z,19.55
2019-02-19T11:25:50.443Z,18.30
2019-02-19T11:28:18.698Z,18.73
2019-02-19T11:30:47.009Z,18.25
2019-02-19T11:33:15.256Z,18.05
2019-02-19T11:35:43.600Z,17.57
2019-02-19T11:38:11.859Z,16.85
2019-02-19T11:40:40.144Z,17.15
2019-02-19T11:43:08.401Z,17.15
2019-02-19T11:45:36.745Z,17.82
2019-02-19T11:48:04.993Z,16.90
2019-02-19T11:50:33.312Z,17.25
2019-02-19T11:53:01.586Z,15.40
2019-02-19T11:55:29.863Z,14.55
2019-02-19T11:57:58.150Z,14.98
2019-02-19T12:00:40.111Z,14.58
2019-02-19T12:03:08.465Z,17.20
2019-02-19T12:05:36.824Z,16.52
2019-02-19T12:08:05.255Z,15.58
2019-02-19T12:10:33.664Z,15.68
2019-02-19T12:13:01.956Z,15.98
2019-02-19T12:15:35.090Z,15.43
2019-02-19T12:18:00.223Z,16.07
2019-02-19T12:20:28.464Z,15.48
2019-02-19T12:22:57.672Z,15.48
2019-02-19T12:25:25.925Z,15.03
2019-02-19T12:27:54.242Z,14.78
2019-02-19T12:30:22.530Z,14.80
2019-02-19T12:32:50.855Z,15.03
2019-02-19T12:35:19.167Z,16.67
2019-02-19T12:37:47.447Z,15.08
2019-02-19T12:40:15.737Z,15.88
2019-02-19T12:42:44.088Z,15.25
2019-02-19T12:45:15.644Z,15.50
2019-02-19T12:47:43.894Z,15.50
2019-02-19T12:50:16.867Z,15.50
2019-02-19T12:52:45.203Z,14.63
2019-02-19T12:55:13.596Z,14.85
2019-02-19T12:57:41.871Z,14.38
2019-02-19T13:00:21.029Z,14.80
2019-02-19T13:02:49.286Z,14.83
2019-02-19T13:05:17.810Z,14.55
2019-02-19T13:07:47.077Z,14.58
2019-02-19T13:10:15.558Z,14.33
2019-02-19T13:12:45.484Z,13.32
2019-02-19T13:15:17.065Z,12.70
2019-02-19T13:17:45.394Z,13.15
2019-02-19T13:20:15.333Z,13.05
2019-02-19T13:22:43.599Z,13.05
2019-02-19T13:25:12.262Z,13.60
2019-02-19T13:27:40.535Z,12.88
2019-02-19T13:30:12.123Z,12.03
2019-02-19T13:32:40.459Z,14.53
2019-02-19T13:35:10.942Z,15.93
2019-02-19T13:37:39.195Z,15.13
2019-02-19T13:40:11.549Z,15.08
2019-02-19T13:42:39.771Z,15.38
2019-02-19T13:45:10.734Z,15.25
2019-02-19T13:47:38.990Z,16.35
2019-02-19T13:50:32.513Z,16.02
2019-02-19T13:53:05.312Z,14.58
2019-02-19T13:55:35.269Z,13.22
2019-02-19T13:58:03.518Z,15.20
2019-02-19T14:00:33.475Z,14.28
2019-02-19T14:03:01.740Z,15.43
2019-02-19T14:05:30.014Z,13.95
2019-02-19T14:07:58.315Z,11.53
2019-02-19T14:10:28.074Z,11.50
2019-02-19T14:12:56.361Z,12.75
2019-02-19T14:15:42.495Z,14.10
2019-02-19T14:18:12.394Z,15.63
2019-02-19T14:20:51.501Z,14.78
2019-02-19T14:26:22.390Z,15.50
2019-02-19T14:28:57.982Z,15.25
2019-02-19T14:31:27.929Z,14.87
2019-02-19T14:34:13.226Z,14.68
2019-02-19T14:36:58.030Z,13.35
2019-02-19T14:39:39.771Z,13.38
2019-02-19T14:42:12.715Z,13.78
2019-02-19T14:44:45.401Z,14.03
2019-02-19T14:47:30.361Z,13.18
2019-02-19T14:50:02.864Z,11.60
2019-02-19T14:55:34.346Z,8.73
2019-02-19T14:58:21.076Z,7.75
2019-02-19T15:00:59.609Z,7.17
2019-02-19T15:03:32.364Z,7.35
2019-02-19T15:06:02.265Z,7.85
2019-02-19T15:11:13.795Z,9.18
2019-02-19T15:13:43.724Z,11.05
2019-02-19T15:16:29.786Z,10.48
2019-02-19T15:18:59.712Z,11.03
2019-02-19T15:21:45.674Z,11.70
2019-02-19T15:24:15.622Z,8.83
2019-02-19T15:27:00.659Z,7.47
2019-02-19T15:29:36.321Z,8.08
2019-02-19T15:32:09.093Z,8.08
2019-02-19T15:34:39.039Z,9.25
2019-02-19T15:37:18.119Z,11.00
2019-02-19T15:39:51.160Z,10.55
2019-02-19T15:42:23.972Z,8.38
2019-02-19T15:44:53.878Z,5.87
2019-02-19T15:47:23.810Z,3.92
2019-02-19T15:50:05.879Z,3.87
2019-02-19T15:52:51.045Z,4.85
2019-02-19T15:55:38.226Z,6.05
2019-02-19T15:58:07.897Z,7.80
2019-02-19T16:00:46.838Z,7.53
2019-02-19T16:03:19.791Z,7.83
2019-02-19T16:05:54.285Z,8.00
2019-02-19T16:08:30.177Z,9.33
2019-02-19T16:11:06.055Z,11.85
2019-02-19T16:13:46.135Z,14.00
2019-02-19T16:19:43.907Z,12.95
2019-02-19T16:22:22.817Z,11.35
2019-02-19T16:24:55.442Z,10.63
2019-02-19T16:27:25.374Z,10.55
2019-02-19T16:29:55.490Z,9.63
2019-02-19T16:32:28.171Z,10.40
2019-02-19T16:34:58.228Z,8.85
2019-02-19T16:37:37.243Z,10.30
2019-02-19T16:40:17.182Z,9.98
2019-02-19T16:42:52.723Z,10.38
2019-02-19T16:45:28.706Z,8.63
2019-02-19T16:48:01.397Z,10.15
2019-02-19T16:50:34.285Z,9.30
2019-02-19T16:53:20.253Z,9.65
2019-02-19T16:55:53.381Z,9.10
2019-02-19T16:58:23.291Z,8.65
2019-02-19T17:00:56.217Z,9.88
2019-02-19T17:03:38.342Z,9.83
2019-02-19T17:06:10.971Z,9.33
2019-02-19T17:08:40.875Z,10.00
2019-02-19T17:11:31.603Z,9.35
2019-02-19T17:14:10.541Z,18.10
2019-02-19T17:16:43.058Z,14.58
2019-02-19T17:19:18.653Z,10.32
2019-02-19T17:21:54.202Z,9.53
2019-02-19T17:24:26.532Z,9.03
2019-02-19T17:26:59.144Z,9.73
2019-02-19T17:29:45.304Z,10.03
2019-02-19T17:32:25.222Z,10.93
2019-02-19T17:34:55.141Z,9.73
2019-02-19T17:37:33.881Z,11.33
2019-02-19T17:40:09.354Z,10.45
2019-02-19T17:42:42.215Z,11.33
2019-02-19T17:45:16.559Z,10.23
2019-02-19T17:47:55.240Z,10.90
2019-02-19T17:50:25.154Z,8.95
2019-02-19T17:53:00.570Z,10.38
2019-02-19T17:55:32.114Z,10.23
2019-02-19T17:58:09.652Z,11.90
2019-02-19T18:00:55.950Z,15.30
2019-02-19T18:03:38.203Z,13.50
2019-02-19T18:06:08.112Z,11.45
2019-02-19T18:08:40.858Z,11.18
2019-02-19T18:11:13.405Z,11.28
2019-02-19T18:13:46.338Z,11.68
2019-02-19T18:16:34.328Z,10.68
2019-02-19T18:19:03.997Z,10.72
2019-02-19T18:21:32.737Z,10.48
2019-02-19T18:24:01.325Z,11.18
2019-02-19T18:26:31.608Z,10.38
2019-02-19T18:28:59.894Z,10.60
2019-02-19T18:31:28.156Z,11.20
2019-02-19T18:33:58.416Z,11.50
2019-02-19T18:36:26.872Z,11.25
2019-02-19T18:38:58.109Z,11.53
2019-02-19T18:41:26.369Z,11.50
2019-02-19T18:43:54.681Z,11.53
2019-02-19T18:46:23.026Z,11.78
2019-02-19T18:48:51.412Z,11.63
2019-02-19T18:51:21.849Z,11.75
2019-02-19T18:53:50.192Z,12.47
2019-02-19T18:56:18.567Z,11.12
2019-02-19T18:58:46.891Z,11.83
2019-02-19T19:01:16.759Z,11.35
2019-02-19T19:03:45.046Z,11.83
2019-02-19T19:06:13.394Z,12.55
2019-02-19T19:08:41.813Z,11.33
2019-02-19T19:11:10.122Z,12.63
2019-02-19T19:13:38.428Z,11.25
2019-02-19T19:16:06.770Z,12.82
2019-02-19T19:18:35.036Z,13.45
2019-02-19T19:21:07.883Z,12.10
2019-02-19T19:23:33.559Z,12.88
2019-02-19T19:26:02.186Z,12.58
2019-02-19T19:28:30.443Z,13.08
2019-02-19T19:30:58.827Z,11.83
2019-02-19T19:33:27.219Z,13.28
2019-02-19T19:35:55.839Z,11.53
2019-02-19T19:38:24.131Z,12.23
2019-02-19T19:40:52.615Z,12.33
2019-02-19T19:43:22.491Z,11.97
2019-02-19T19:45:53.791Z,11.38
2019-02-19T19:48:22.652Z,12.07
2019-02-19T19:50:50.981Z,12.58
2019-02-19T19:53:31.345Z,12.33
2019-02-19T19:55:59.609Z,12.88
2019-02-19T19:58:27.864Z,11.90
2019-02-19T20:00:56.177Z,11.95
2019-02-19T20:03:24.459Z,12.05
2019-02-19T20:05:52.917Z,12.45
2019-02-19T20:08:21.183Z,11.15
2019-02-19T20:10:49.507Z,12.05
2019-02-19T20:13:17.794Z,11.30
2019-02-19T20:15:47.793Z,11.30
2019-02-19T20:18:16.677Z,12.37
2019-02-19T20:20:45.861Z,11.35
2019-02-19T20:23:15.863Z,11.73
2019-02-19T20:25:46.155Z,11.40
2019-02-19T20:28:14.923Z,10.45
2019-02-19T20:30:43.186Z,10.93
2019-02-19T20:33:11.492Z,10.93
2019-02-19T20:35:41.526Z,10.08
2019-02-19T20:38:09.957Z,9.50
2019-02-19T20:40:38.208Z,10.75
2019-02-19T20:43:06.502Z,10.70
2019-02-19T20:45:37.781Z,10.32
2019-02-19T20:48:06.092Z,9.65
2019-02-19T20:50:34.388Z,10.35
2019-02-19T20:53:02.680Z,10.63
2019-02-19T20:55:36.874Z,10.60
2019-02-19T20:58:02.503Z,10.08
2019-02-19T21:00:30.783Z,10.00
2019-02-19T21:02:59.049Z,9.28
2019-02-19T21:05:27.320Z,10.40
2019-02-19T21:07:55.602Z,10.60
2019-02-19T21:10:23.863Z,10.32
2019-02-19T21:12:52.134Z,10.32
2019-02-19T21:15:20.561Z,9.70
2019-02-19T21:17:50.112Z,10.20
2019-02-19T21:20:18.482Z,11.45
2019-02-19T21:22:46.730Z,12.58
2019-02-19T21:25:15.116Z,12.13
2019-02-19T21:27:43.377Z,10.88
2019-02-19T21:30:13.741Z,11.73
2019-02-19T21:32:41.995Z,11.43
2019-02-19T21:35:10.509Z,11.55
2019-02-19T21:37:39.036Z,12.28
2019-02-19T21:40:12.754Z,11.70
2019-02-19T21:42:41.076Z,12.13
2019-02-19T21:45:11.043Z,11.20
2019-02-19T21:47:39.308Z,10.95
2019-02-19T21:50:09.965Z,11.53
2019-02-19T21:52:38.218Z,11.68
2019-02-19T21:55:08.857Z,11.88
2019-02-19T21:57:37.120Z,12.20
2019-02-19T22:00:13.451Z,13.35
2019-02-19T22:02:41.700Z,11.65
2019-02-19T22:05:10.112Z,11.25
2019-02-19T22:07:38.358Z,11.53
2019-02-19T22:10:09.260Z,11.57
2019-02-19T22:12:37.549Z,13.13
2019-02-19T22:15:10.974Z,12.82
2019-02-19T22:17:39.262Z,13.68
2019-02-19T22:20:18.419Z,13.95
2019-02-19T22:22:46.676Z,15.32
2019-02-19T22:25:14.966Z,17.15
2019-02-19T22:27:43.240Z,16.85
2019-02-19T22:30:14.588Z,17.80
2019-02-19T22:32:42.854Z,17.60
2019-02-19T22:35:14.184Z,15.58
2019-02-19T22:37:42.676Z,14.25
2019-02-19T22:40:11.322Z,15.05
2019-02-19T22:42:39.813Z,13.43
2019-02-19T22:45:09.898Z,14.23
2019-02-19T22:47:38.365Z,13.55
2019-02-19T22:50:08.697Z,15.48
2019-02-19T22:52:37.186Z,15.48
2019-02-19T22:55:11.481Z,15.90
2019-02-19T22:57:40.022Z,14.87
2019-02-19T23:00:16.122Z,12.85
2019-02-19T23:02:46.708Z,14.70
2019-02-19T23:05:15.331Z,15.50
2019-02-19T23:07:43.797Z,15.15
2019-02-19T23:10:12.317Z,14.60
2019-02-19T23:12:40.925Z,15.25
2019-02-19T23:15:09.700Z,14.55
2019-02-19T23:17:38.169Z,14.50
2019-02-19T23:20:07.742Z,16.40
2019-02-19T23:22:36.213Z,15.40
2019-02-19T23:25:06.178Z,15.78
2019-02-19T23:27:34.651Z,16.45
2019-02-19T23:30:03.276Z,15.72
2019-02-19T23:32:31.747Z,15.55
2019-02-19T23:35:11.159Z,15.32
2019-02-19T23:37:39.624Z,15.38
2019-02-19T23:40:08.324Z,15.80
2019-02-19T23:42:36.775Z,14.80
2019-02-19T23:45:07.880Z,14.60
2019-02-19T23:47:36.415Z,13.13
2019-02-19T23:50:07.052Z,14.55
2019-02-19T23:52:35.550Z,14.43
2019-02-19T23:55:05.192Z,14.55
2019-02-19T23:57:33.693Z,13.60
